createdAt,value
2019-03-23T00:01:52.375Z,7.40
2019-03-23T00:06:56.120Z,7.30
2019-03-23T00:11:59.862Z,7.30
2019-03-23T00:17:03.620Z,7.30
2019-03-23T00:22:07.327Z,7.10
2019-03-23T00:27:11.342Z,7.10
2019-03-23T00:32:15.035Z,7.30
2019-03-23T00:37:18.990Z,7.00
2019-03-23T00:42:22.583Z,7.00
2019-03-23T00:47:26.523Z,7.20
2019-03-23T00:52:30.227Z,7.30
2019-03-23T00:57:33.810Z,7.20
2019-03-23T01:02:41.891Z,7.20
2019-03-23T01:07:45.568Z,6.90
2019-03-23T01:12:49.538Z,6.80
2019-03-23T01:17:53.130Z,6.90
2019-03-23T01:22:56.790Z,7.10
2019-03-23T01:28:00.531Z,7.10
2019-03-23T01:33:04.125Z,7.10
2019-03-23T01:38:07.736Z,7.10
2019-03-23T01:43:11.407Z,7.10
2019-03-23T01:48:15.004Z,7.00
2019-03-23T01:53:18.663Z,6.90
2019-03-23T01:58:22.261Z,7.00
2019-03-23T02:03:25.853Z,7.10
2019-03-23T02:08:29.450Z,7.10
2019-03-23T02:13:33.059Z,7.10
2019-03-23T02:18:36.667Z,6.80
2019-03-23T02:23:40.697Z,6.70
2019-03-23T02:28:44.295Z,6.80
2019-03-23T02:33:48.211Z,6.80
2019-03-23T02:38:51.819Z,6.70
2019-03-23T02:43:55.412Z,6.90
2019-03-23T02:48:59.008Z,7.00
2019-03-23T02:54:02.600Z,6.90
2019-03-23T02:59:06.199Z,6.70
2019-03-23T03:04:09.793Z,6.40
2019-03-23T03:09:13.397Z,6.20
2019-03-23T03:14:16.993Z,6.20
2019-03-23T03:19:20.772Z,6.10
2019-03-23T03:24:24.444Z,6.00
2019-03-23T03:29:28.025Z,6.20
2019-03-23T03:34:31.621Z,6.20
2019-03-23T03:44:31.237Z,6.20
2019-03-23T03:49:34.827Z,6.40
2019-03-23T03:54:38.732Z,6.60
2019-03-23T03:59:42.331Z,6.70
2019-03-23T04:04:45.926Z,6.90
2019-03-23T04:09:49.538Z,6.80
2019-03-23T04:14:53.197Z,6.40
2019-03-23T04:19:56.815Z,6.00
2019-03-23T04:25:00.647Z,5.90
2019-03-23T04:30:06.128Z,5.90
2019-03-23T04:35:09.781Z,5.60
2019-03-23T04:40:13.815Z,5.50
2019-03-23T04:45:17.669Z,5.50
2019-03-23T04:50:21.325Z,5.60
2019-03-23T04:55:25.396Z,5.60
2019-03-23T05:00:29.164Z,5.40
2019-03-23T05:05:32.758Z,5.40
2019-03-23T05:10:36.747Z,5.40
2019-03-23T05:15:40.674Z,5.20
2019-03-23T05:20:44.709Z,5.20
2019-03-23T05:25:48.313Z,5.10
2019-03-23T05:30:51.904Z,5.00
2019-03-23T05:35:55.492Z,5.10
2019-03-23T05:40:59.137Z,5.20
2019-03-23T05:46:02.730Z,5.00
2019-03-23T05:51:06.321Z,4.90
2019-03-23T05:56:09.924Z,5.10
2019-03-23T06:01:13.516Z,5.10
2019-03-23T06:06:36.438Z,5.10
2019-03-23T06:11:40.341Z,5.20
2019-03-23T06:16:43.929Z,5.20
2019-03-23T06:21:47.546Z,5.30
2019-03-23T06:26:51.129Z,5.30
2019-03-23T06:31:55.134Z,5.40
2019-03-23T06:36:58.733Z,5.40
2019-03-23T06:42:02.689Z,5.40
2019-03-23T06:47:06.283Z,5.40
2019-03-23T06:52:10.241Z,5.60
2019-03-23T06:57:14.302Z,5.80
2019-03-23T07:02:17.961Z,6.00
2019-03-23T07:07:21.553Z,6.40
2019-03-23T07:12:25.217Z,6.60
2019-03-23T07:17:28.807Z,7.10
2019-03-23T07:22:32.741Z,7.50
2019-03-23T07:27:36.756Z,7.90
2019-03-23T07:32:40.733Z,8.20
2019-03-23T07:37:44.826Z,8.50
2019-03-23T07:42:48.559Z,8.90
2019-03-23T07:47:52.179Z,9.20
2019-03-23T07:52:55.774Z,9.60
2019-03-23T07:57:59.360Z,9.90
2019-03-23T08:03:03.450Z,10.10
2019-03-23T08:08:07.339Z,10.50
2019-03-23T08:13:11.287Z,11.00
2019-03-23T08:18:15.437Z,11.50
2019-03-23T08:23:19.376Z,11.90
2019-03-23T08:28:23.042Z,12.30
2019-03-23T08:33:27.024Z,12.70
2019-03-23T08:38:30.623Z,13.10
2019-03-23T08:43:34.541Z,13.50
2019-03-23T08:48:38.237Z,13.90
2019-03-23T08:53:41.850Z,14.30
2019-03-23T08:58:44.372Z,14.80
2019-03-23T09:03:52.460Z,15.40
2019-03-23T09:08:53.220Z,15.80
2019-03-23T09:13:56.833Z,16.40
2019-03-23T09:19:00.661Z,16.90
2019-03-23T09:24:04.729Z,17.20
2019-03-23T09:29:10.178Z,17.70
2019-03-23T09:34:13.725Z,18.30
2019-03-23T09:39:17.326Z,18.60
2019-03-23T09:44:20.999Z,19.10
2019-03-23T09:49:24.603Z,19.50
2019-03-23T09:54:28.205Z,19.80
2019-03-23T09:59:31.801Z,20.30
2019-03-23T10:04:35.750Z,20.90
2019-03-23T10:09:39.708Z,21.10
2019-03-23T10:14:43.637Z,21.30
2019-03-23T10:19:47.532Z,21.70
2019-03-23T10:24:51.129Z,21.80
2019-03-23T10:29:54.721Z,22.50
2019-03-23T10:34:58.395Z,22.50
2019-03-23T10:40:02.021Z,23.00
2019-03-23T10:45:07.931Z,23.30
2019-03-23T10:50:13.062Z,23.50
2019-03-23T10:55:17.122Z,24.10
2019-03-23T11:00:20.793Z,24.00
2019-03-23T11:05:24.390Z,24.40
2019-03-23T11:10:27.989Z,24.10
2019-03-23T11:15:31.917Z,24.30
2019-03-23T11:20:35.517Z,24.60
2019-03-23T11:25:39.127Z,25.30
2019-03-23T11:30:42.825Z,25.10
2019-03-23T11:35:46.424Z,25.40
2019-03-23T11:40:54.950Z,25.90
2019-03-23T11:45:55.681Z,25.90
2019-03-23T11:50:59.279Z,26.00
2019-03-23T11:56:03.019Z,26.30
2019-03-23T12:01:07.869Z,26.40
2019-03-23T12:06:11.930Z,25.90
2019-03-23T12:11:15.514Z,26.30
2019-03-23T12:16:19.114Z,26.80
2019-03-23T12:21:22.783Z,26.60
2019-03-23T12:26:26.725Z,26.70
2019-03-23T12:31:30.335Z,26.70
2019-03-23T12:36:33.941Z,26.80
2019-03-23T12:41:37.604Z,26.90
2019-03-23T12:46:48.156Z,27.00
2019-03-23T12:51:47.050Z,27.20
2019-03-23T12:56:50.649Z,27.60
2019-03-23T13:01:54.370Z,27.10
2019-03-23T13:06:57.981Z,27.50
2019-03-23T13:12:01.576Z,27.20
2019-03-23T13:17:05.902Z,27.20
2019-03-23T13:22:23.560Z,27.60
2019-03-23T13:27:18.549Z,27.90
2019-03-23T13:32:22.153Z,27.70
2019-03-23T13:37:25.774Z,27.80
2019-03-23T13:42:29.371Z,27.10
2019-03-23T13:47:32.973Z,27.40
2019-03-23T13:52:36.983Z,27.50
2019-03-23T13:57:40.580Z,27.40
2019-03-23T14:02:44.513Z,27.60
2019-03-23T14:07:48.127Z,27.40
2019-03-23T14:12:51.727Z,26.60
2019-03-23T14:17:55.408Z,26.80
2019-03-23T14:23:02.932Z,26.60
2019-03-23T14:28:04.327Z,26.80
2019-03-23T14:33:07.927Z,26.30
2019-03-23T14:38:11.526Z,26.10
2019-03-23T14:43:15.145Z,26.10
2019-03-23T14:48:19.311Z,26.00
2019-03-23T14:53:23.005Z,25.80
2019-03-23T14:58:26.609Z,25.20
2019-03-23T15:03:30.213Z,25.00
2019-03-23T15:08:33.822Z,24.30
2019-03-23T15:13:37.481Z,24.60
2019-03-23T15:18:41.085Z,24.30
2019-03-23T15:23:44.703Z,24.10
2019-03-23T15:28:48.292Z,23.70
2019-03-23T15:33:51.890Z,23.40
2019-03-23T15:38:55.483Z,23.10
2019-03-23T15:43:59.095Z,22.70
2019-03-23T15:49:02.691Z,22.30
2019-03-23T15:54:06.463Z,22.10
2019-03-23T15:59:10.027Z,22.00
2019-03-23T16:04:13.639Z,21.80
2019-03-23T16:09:17.564Z,21.60
2019-03-23T16:14:21.161Z,21.10
2019-03-23T16:19:24.845Z,20.60
2019-03-23T16:24:28.946Z,20.70
2019-03-23T16:29:32.557Z,20.70
2019-03-23T16:34:36.138Z,20.40
2019-03-23T16:39:39.725Z,20.10
2019-03-23T16:44:43.734Z,20.00
2019-03-23T16:49:47.337Z,19.90
2019-03-23T16:54:50.943Z,19.80
2019-03-23T16:59:54.537Z,19.60
2019-03-23T17:04:58.178Z,19.30
2019-03-23T17:10:03.409Z,19.20
2019-03-23T17:15:10.256Z,19.10
2019-03-23T17:20:14.316Z,18.70
2019-03-23T17:25:17.986Z,18.50
2019-03-23T17:30:22.037Z,18.30
2019-03-23T17:35:26.038Z,18.10
2019-03-23T17:40:29.757Z,17.90
2019-03-23T17:45:33.772Z,17.70
2019-03-23T17:50:37.439Z,17.40
2019-03-23T17:55:41.138Z,17.00
2019-03-23T18:00:45.207Z,16.00
2019-03-23T18:05:48.881Z,15.60
2019-03-23T18:10:52.492Z,14.80
2019-03-23T18:15:56.895Z,14.70
2019-03-23T18:21:00.633Z,14.10
2019-03-23T18:26:04.637Z,13.70
2019-03-23T18:31:08.229Z,13.60
2019-03-23T18:36:11.904Z,13.30
2019-03-23T18:41:15.629Z,12.90
2019-03-23T18:46:19.230Z,12.70
2019-03-23T18:51:23.305Z,12.40
2019-03-23T18:56:26.906Z,12.20
2019-03-23T19:01:30.514Z,12.20
2019-03-23T19:06:34.114Z,12.10
2019-03-23T19:11:37.783Z,12.00
2019-03-23T19:16:41.839Z,12.10
2019-03-23T19:21:45.852Z,12.30
2019-03-23T19:26:49.760Z,12.10
2019-03-23T19:31:53.719Z,11.50
2019-03-23T19:36:57.335Z,11.10
2019-03-23T19:42:01.021Z,11.10
2019-03-23T19:47:04.793Z,11.20
2019-03-23T19:52:08.412Z,11.40
2019-03-23T19:57:12.013Z,11.50
2019-03-23T20:02:15.628Z,11.00
2019-03-23T20:07:19.289Z,10.80
2019-03-23T20:12:22.913Z,10.80
2019-03-23T20:17:26.496Z,10.70
2019-03-23T20:22:30.486Z,10.70
2019-03-23T20:27:34.142Z,10.70
2019-03-23T20:32:37.851Z,10.60
2019-03-23T20:37:41.923Z,10.70
2019-03-23T20:42:45.525Z,10.60
2019-03-23T20:47:49.725Z,10.40
2019-03-23T20:52:53.606Z,10.20
2019-03-23T20:57:57.355Z,10.00
2019-03-23T21:03:01.085Z,10.00
2019-03-23T21:08:04.859Z,9.90
2019-03-23T21:13:08.484Z,9.70
2019-03-23T21:18:12.215Z,9.60
2019-03-23T21:23:16.197Z,9.60
2019-03-23T21:28:19.857Z,9.40
2019-03-23T21:33:23.478Z,9.40
2019-03-23T21:38:27.094Z,9.40
2019-03-23T21:43:31.097Z,8.90
2019-03-23T21:48:34.774Z,8.90
2019-03-23T21:53:38.885Z,9.20
2019-03-23T21:58:42.545Z,8.90
2019-03-23T22:03:46.207Z,8.50
2019-03-23T22:08:49.873Z,8.60
2019-03-23T22:13:53.459Z,8.80
2019-03-23T22:18:57.483Z,8.50
2019-03-23T22:24:01.081Z,8.50
2019-03-23T22:29:04.808Z,8.40
2019-03-23T22:34:08.864Z,8.50
2019-03-23T22:39:12.450Z,8.60
2019-03-23T22:44:16.404Z,8.40
2019-03-23T22:49:20.001Z,8.40
2019-03-23T22:54:23.589Z,8.40
2019-03-23T22:59:27.184Z,8.30
2019-03-23T23:04:31.177Z,8.30
2019-03-23T23:09:34.777Z,8.00
2019-03-23T23:14:38.365Z,7.70
2019-03-23T23:19:41.962Z,7.60
2019-03-23T23:24:45.585Z,7.80
2019-03-23T23:29:49.188Z,7.60
2019-03-23T23:34:52.786Z,7.70
2019-03-23T23:39:56.377Z,7.70
2019-03-23T23:44:59.977Z,7.50
2019-03-23T23:50:04.996Z,7.50
2019-03-23T23:55:09.034Z,7.40
